createdAt,value
2022-12-05T00:02:08.781Z,13.52
2022-12-05T00:04:37.290Z,13.60
2022-12-05T00:07:07.277Z,14.13
2022-12-05T00:09:35.483Z,14.73
2022-12-05T00:12:04.222Z,14.45
2022-12-05T00:14:32.353Z,13.70
2022-12-05T00:17:00.832Z,13.77
2022-12-05T00:19:29.126Z,13.50
2022-12-05T00:21:58.068Z,13.07
2022-12-05T00:24:27.615Z,14.60
2022-12-05T00:26:56.337Z,13.10
2022-12-05T00:29:24.455Z,12.93
2022-12-05T00:31:52.999Z,11.73
2022-12-05T00:34:21.358Z,13.98
2022-12-05T00:36:52.510Z,13.02
2022-12-05T00:39:20.739Z,12.77
2022-12-05T00:41:50.518Z,11.93
2022-12-05T00:44:18.691Z,13.15
2022-12-05T00:46:47.217Z,11.77
2022-12-05T00:49:15.351Z,11.93
2022-12-05T00:51:45.616Z,11.98
2022-12-05T00:54:16.263Z,12.80
2022-12-05T00:56:45.282Z,12.68
2022-12-05T00:59:17.794Z,12.80
2022-12-05T01:01:47.952Z,12.95
2022-12-05T01:04:19.446Z,11.07
2022-12-05T01:06:48.939Z,12.35
2022-12-05T01:09:20.269Z,12.07
2022-12-05T01:11:49.122Z,13.15
2022-12-05T01:14:21.117Z,11.53
2022-12-05T01:16:51.323Z,12.80
2022-12-05T01:19:21.415Z,12.35
2022-12-05T01:21:49.850Z,12.55
2022-12-05T01:24:19.204Z,12.95
2022-12-05T01:26:48.627Z,14.05
2022-12-05T01:29:20.342Z,13.32
2022-12-05T01:31:49.123Z,12.40
2022-12-05T01:34:18.967Z,13.13
2022-12-05T01:36:47.744Z,14.02
2022-12-05T01:39:16.464Z,13.43
2022-12-05T01:41:47.387Z,12.55
2022-12-05T01:44:53.328Z,12.70
2022-12-05T01:47:26.251Z,12.23
2022-12-05T01:49:54.743Z,11.30
2022-12-05T01:52:27.173Z,12.15
2022-12-05T01:54:58.438Z,12.85
2022-12-05T01:57:27.470Z,12.88
2022-12-05T02:00:00.338Z,11.55
2022-12-05T02:02:32.733Z,11.60
2022-12-05T02:05:04.992Z,13.05
2022-12-05T02:07:34.741Z,10.85
2022-12-05T02:12:31.342Z,10.50
2022-12-05T02:15:23.131Z,9.82
2022-12-05T02:18:04.775Z,11.65
2022-12-05T02:20:42.521Z,12.35
2022-12-05T02:23:42.655Z,10.88
2022-12-05T02:26:49.132Z,11.25
2022-12-05T02:29:46.839Z,12.38
2022-12-05T02:32:23.174Z,12.00
2022-12-05T02:34:59.692Z,10.88
2022-12-05T02:37:32.024Z,11.45
2022-12-05T02:40:06.990Z,12.02
2022-12-05T02:42:42.955Z,11.70
2022-12-05T02:45:15.475Z,11.88
2022-12-05T02:47:48.955Z,11.65
2022-12-05T02:50:22.135Z,11.98
2022-12-05T02:52:53.865Z,12.20
2022-12-05T02:55:24.655Z,13.48
2022-12-05T02:57:59.117Z,12.82
2022-12-05T03:00:27.634Z,12.35
2022-12-05T03:02:59.823Z,12.32
2022-12-05T03:05:34.731Z,12.20
2022-12-05T03:08:06.004Z,13.02
2022-12-05T03:10:35.958Z,12.82
2022-12-05T03:15:40.217Z,13.00
2022-12-05T03:18:15.427Z,11.30
2022-12-05T03:20:49.647Z,12.13
2022-12-05T03:23:26.148Z,11.77
2022-12-05T03:26:01.368Z,11.52
2022-12-05T03:28:37.861Z,11.60
2022-12-05T03:31:39.611Z,12.75
2022-12-05T03:34:15.687Z,15.05
2022-12-05T03:36:49.953Z,14.77
2022-12-05T03:39:24.245Z,13.43
2022-12-05T03:42:01.486Z,13.00
2022-12-05T03:44:35.961Z,12.40
2022-12-05T03:47:08.453Z,13.23
2022-12-05T03:49:41.770Z,11.93
2022-12-05T03:52:15.840Z,12.23
2022-12-05T03:54:48.371Z,12.73
2022-12-05T03:57:23.572Z,12.43
2022-12-05T03:59:56.915Z,13.45
2022-12-05T04:02:30.696Z,12.38
2022-12-05T04:05:05.442Z,14.57
2022-12-05T04:07:36.975Z,15.05
2022-12-05T04:10:09.926Z,16.25
2022-12-05T04:12:41.399Z,14.60
2022-12-05T04:15:16.087Z,15.88
2022-12-05T04:17:53.500Z,15.38
2022-12-05T04:20:46.739Z,15.57
2022-12-05T04:23:15.687Z,14.30
2022-12-05T04:25:55.234Z,13.43
2022-12-05T04:28:34.073Z,13.52
2022-12-05T04:31:06.585Z,13.10
2022-12-05T04:33:42.744Z,12.18
2022-12-05T04:36:17.006Z,12.35
2022-12-05T04:38:51.850Z,11.90
2022-12-05T04:41:24.809Z,12.77
2022-12-05T04:43:57.155Z,11.13
2022-12-05T04:46:26.641Z,12.70
2022-12-05T04:48:59.492Z,12.93
2022-12-05T04:51:32.586Z,12.50
2022-12-05T04:54:05.554Z,12.10
2022-12-05T04:56:38.016Z,13.18
2022-12-05T04:59:06.775Z,12.48
2022-12-05T05:01:41.028Z,11.32
2022-12-05T05:04:13.715Z,10.55
2022-12-05T05:06:43.892Z,11.30
2022-12-05T05:09:12.613Z,10.75
2022-12-05T05:11:40.865Z,11.07
2022-12-05T05:14:09.521Z,11.57
2022-12-05T05:16:39.495Z,10.95
2022-12-05T05:19:09.721Z,9.95
2022-12-05T05:21:39.517Z,10.95
2022-12-05T05:24:11.808Z,10.85
2022-12-05T05:26:42.225Z,10.43
2022-12-05T05:29:12.016Z,11.75
2022-12-05T05:34:10.055Z,10.65
2022-12-05T05:39:07.849Z,11.25
2022-12-05T05:41:38.100Z,11.00
2022-12-05T05:44:07.018Z,11.55
2022-12-05T05:46:38.756Z,11.50
2022-12-05T05:49:07.280Z,10.18
2022-12-05T05:51:35.421Z,10.70
2022-12-05T05:54:03.905Z,10.35
2022-12-05T05:56:32.067Z,11.10
2022-12-05T05:59:04.847Z,10.35
2022-12-05T06:01:33.303Z,10.45
2022-12-05T06:04:01.791Z,11.60
2022-12-05T06:06:30.209Z,11.70
2022-12-05T06:08:58.720Z,12.17
2022-12-05T06:11:28.537Z,10.63
2022-12-05T06:13:58.431Z,11.63
2022-12-05T06:16:28.063Z,12.48
2022-12-05T06:18:56.482Z,13.00
2022-12-05T06:21:25.545Z,12.18
2022-12-05T06:23:54.042Z,12.07
2022-12-05T06:26:23.217Z,12.27
2022-12-05T06:28:52.304Z,11.93
2022-12-05T06:31:23.278Z,10.75
2022-12-05T06:33:53.146Z,12.48
2022-12-05T06:38:51.398Z,11.50
2022-12-05T06:41:21.631Z,12.23
2022-12-05T06:43:49.999Z,12.98
2022-12-05T06:46:18.273Z,11.52
2022-12-05T06:48:47.166Z,11.80
2022-12-05T06:51:18.079Z,11.02
2022-12-05T06:53:46.801Z,11.25
2022-12-05T06:56:17.304Z,11.75
2022-12-05T06:58:48.006Z,10.93
2022-12-05T07:01:41.943Z,12.52
2022-12-05T07:04:15.752Z,12.15
2022-12-05T07:06:50.535Z,11.73
2022-12-05T07:09:21.101Z,11.85
2022-12-05T07:11:50.363Z,11.98
2022-12-05T07:14:45.798Z,12.60
2022-12-05T07:17:08.050Z,11.98
2022-12-05T07:19:36.464Z,12.30
2022-12-05T07:22:10.747Z,11.50
2022-12-05T07:24:44.250Z,12.38
2022-12-05T07:27:12.559Z,11.63
2022-12-05T07:29:41.291Z,13.05
2022-12-05T07:32:10.426Z,13.43
2022-12-05T07:37:09.270Z,12.38
2022-12-05T07:39:37.756Z,13.38
2022-12-05T07:42:06.022Z,13.77
2022-12-05T07:44:35.015Z,13.25
2022-12-05T07:47:03.182Z,14.02
2022-12-05T07:49:31.645Z,14.23
2022-12-05T07:51:59.745Z,15.38
2022-12-05T07:54:29.589Z,13.38
2022-12-05T07:56:57.682Z,13.32
2022-12-05T07:59:26.199Z,12.50
2022-12-05T08:01:54.371Z,10.60
2022-12-05T08:04:22.798Z,12.63
2022-12-05T08:06:51.519Z,13.73
2022-12-05T08:09:19.932Z,12.77
2022-12-05T08:11:52.531Z,13.55
2022-12-05T08:14:21.815Z,12.80
2022-12-05T08:16:49.995Z,13.93
2022-12-05T08:19:18.496Z,13.32
2022-12-05T08:21:46.660Z,12.00
2022-12-05T08:24:15.655Z,13.40
2022-12-05T08:26:43.762Z,13.07
2022-12-05T08:29:16.420Z,13.45
2022-12-05T08:31:47.297Z,13.90
2022-12-05T08:34:16.620Z,11.82
2022-12-05T08:36:45.169Z,12.88
2022-12-05T08:39:16.182Z,12.57
2022-12-05T08:41:44.904Z,13.48
2022-12-05T08:44:17.209Z,12.95
2022-12-05T08:46:47.350Z,12.70
2022-12-05T08:49:16.345Z,14.60
2022-12-05T08:51:44.982Z,13.82
2022-12-05T08:54:14.324Z,14.27
2022-12-05T08:56:42.532Z,14.50
2022-12-05T08:59:11.010Z,14.17
2022-12-05T09:01:42.355Z,14.65
2022-12-05T09:04:12.349Z,14.10
2022-12-05T09:06:41.815Z,14.93
2022-12-05T09:09:11.994Z,15.15
2022-12-05T09:11:46.403Z,14.23
2022-12-05T09:14:15.262Z,14.30
2022-12-05T09:16:46.448Z,14.07
2022-12-05T09:19:16.780Z,15.27
2022-12-05T09:21:45.366Z,15.75
2022-12-05T09:24:15.232Z,15.30
2022-12-05T09:26:43.557Z,15.40
2022-12-05T09:29:16.631Z,14.35
2022-12-05T09:31:48.736Z,12.63
2022-12-05T09:34:18.508Z,14.45
2022-12-05T09:36:49.844Z,14.68
2022-12-05T09:39:18.889Z,13.75
2022-12-05T09:42:09.163Z,14.90
2022-12-05T09:44:45.729Z,14.95
2022-12-05T09:47:35.939Z,14.30
2022-12-05T09:50:15.834Z,15.13
2022-12-05T09:52:50.754Z,15.18
2022-12-05T09:55:21.784Z,14.68
2022-12-05T09:57:53.780Z,14.23
2022-12-05T10:00:22.455Z,14.20
2022-12-05T10:03:00.530Z,14.00
2022-12-05T10:05:37.348Z,13.90
2022-12-05T10:08:15.159Z,12.15
2022-12-05T10:10:57.755Z,14.63
2022-12-05T10:13:40.646Z,15.20
2022-12-05T10:16:14.836Z,14.20
2022-12-05T10:18:48.251Z,14.88
2022-12-05T10:21:21.302Z,12.95
2022-12-05T10:23:59.490Z,13.90
2022-12-05T10:26:31.997Z,14.90
2022-12-05T10:29:10.678Z,14.60
2022-12-05T10:31:42.395Z,13.52
2022-12-05T10:34:19.089Z,13.20
2022-12-05T10:37:06.769Z,14.57
2022-12-05T10:39:35.119Z,14.80
2022-12-05T10:42:04.299Z,13.70
2022-12-05T10:44:33.357Z,15.93
2022-12-05T10:47:02.947Z,15.38
2022-12-05T10:49:33.842Z,15.52
2022-12-05T10:52:03.100Z,15.77
2022-12-05T10:54:34.346Z,13.35
2022-12-05T10:57:02.983Z,15.40
2022-12-05T10:59:47.567Z,14.98
2022-12-05T11:02:26.730Z,14.35
2022-12-05T11:04:58.545Z,13.68
2022-12-05T11:07:33.478Z,14.02
2022-12-05T11:10:04.157Z,15.93
2022-12-05T11:12:39.837Z,15.25
2022-12-05T11:15:24.831Z,14.13
2022-12-05T11:17:55.921Z,15.95
2022-12-05T11:20:43.319Z,16.45
2022-12-05T11:23:28.312Z,15.60
2022-12-05T11:25:58.337Z,15.57
2022-12-05T11:28:36.199Z,15.65
2022-12-05T11:31:06.844Z,14.88
2022-12-05T11:33:36.995Z,14.02
2022-12-05T11:36:14.556Z,14.00
2022-12-05T11:38:43.568Z,14.52
2022-12-05T11:41:35.116Z,15.32
2022-12-05T11:44:23.191Z,16.10
2022-12-05T11:47:01.121Z,16.63
2022-12-05T11:49:59.003Z,15.40
2022-12-05T11:52:40.906Z,15.73
2022-12-05T11:55:17.991Z,17.48
2022-12-05T11:58:21.325Z,16.85
2022-12-05T12:01:00.652Z,15.77
2022-12-05T12:03:57.176Z,16.55
2022-12-05T12:06:30.960Z,16.25
2022-12-05T12:09:35.960Z,15.80
2022-12-05T12:12:16.475Z,16.75
2022-12-05T12:14:51.560Z,16.40
2022-12-05T12:17:27.851Z,15.20
2022-12-05T12:20:14.877Z,17.05
2022-12-05T12:22:57.682Z,15.90
2022-12-05T12:25:36.954Z,16.70
2022-12-05T12:28:22.658Z,18.27
2022-12-05T12:31:07.474Z,18.42
2022-12-05T12:33:44.456Z,18.20
2022-12-05T12:36:19.951Z,19.77
2022-12-05T12:39:15.935Z,20.05
2022-12-05T12:41:58.329Z,19.40
2022-12-05T12:45:01.737Z,18.60
2022-12-05T12:47:40.294Z,17.65
2022-12-05T12:50:17.532Z,17.38
2022-12-05T12:53:06.921Z,18.17
2022-12-05T12:55:44.069Z,19.65
2022-12-05T12:58:25.094Z,19.00
2022-12-05T13:01:04.036Z,18.83
2022-12-05T13:03:39.068Z,18.75
2022-12-05T13:06:14.645Z,17.77
2022-12-05T13:08:49.086Z,18.85
2022-12-05T13:11:19.838Z,17.75
2022-12-05T13:13:54.369Z,18.55
2022-12-05T13:16:26.867Z,20.52
2022-12-05T13:18:56.396Z,19.55
2022-12-05T13:21:27.032Z,19.25
2022-12-05T13:23:59.392Z,19.40
2022-12-05T13:26:28.591Z,17.90
2022-12-05T13:29:00.542Z,19.58
2022-12-05T13:31:42.004Z,18.67
2022-12-05T13:34:46.526Z,18.98
2022-12-05T13:37:39.178Z,18.98
2022-12-05T13:40:37.891Z,19.92
2022-12-05T13:43:07.136Z,18.80
2022-12-05T13:45:37.363Z,18.95
2022-12-05T13:48:15.589Z,20.63
2022-12-05T13:50:50.172Z,19.23
2022-12-05T13:53:30.785Z,17.40
2022-12-05T13:56:01.959Z,18.88
2022-12-05T13:58:45.801Z,16.48
2022-12-05T14:01:53.737Z,18.20
2022-12-05T14:04:51.956Z,17.17
2022-12-05T14:07:41.914Z,17.50
2022-12-05T14:10:14.274Z,19.48
2022-12-05T14:12:54.295Z,18.33
2022-12-05T14:15:34.993Z,17.92
2022-12-05T14:18:15.118Z,19.08
2022-12-05T14:21:09.214Z,18.55
2022-12-05T14:24:05.096Z,19.25
2022-12-05T14:26:52.707Z,17.30
2022-12-05T14:29:35.518Z,18.33
2022-12-05T14:32:16.073Z,17.85
2022-12-05T14:34:56.989Z,16.60
2022-12-05T14:37:29.401Z,17.90
2022-12-05T14:40:00.232Z,18.50
2022-12-05T14:42:38.549Z,19.58
2022-12-05T14:45:26.485Z,17.25
2022-12-05T14:47:57.802Z,19.40
2022-12-05T14:50:43.516Z,20.00
2022-12-05T14:53:35.186Z,21.05
2022-12-05T14:56:17.356Z,19.92
2022-12-05T14:58:51.650Z,19.63
2022-12-05T15:01:23.712Z,19.58
2022-12-05T15:04:08.197Z,19.52
2022-12-05T15:06:48.007Z,18.45
2022-12-05T15:09:38.021Z,19.15
2022-12-05T15:12:13.465Z,18.90
2022-12-05T15:14:49.204Z,18.35
2022-12-05T15:17:23.964Z,18.20
2022-12-05T15:19:57.674Z,17.77
2022-12-05T15:22:29.375Z,18.95
2022-12-05T15:24:59.597Z,19.38
2022-12-05T15:27:28.384Z,22.88
2022-12-05T15:29:57.480Z,21.13
2022-12-05T15:32:28.682Z,21.35
2022-12-05T15:35:05.084Z,18.67
2022-12-05T15:37:46.164Z,21.80
2022-12-05T15:40:17.987Z,20.38
2022-12-05T15:42:48.217Z,19.40
2022-12-05T15:45:21.867Z,20.55
2022-12-05T15:47:51.995Z,20.63
2022-12-05T15:50:27.986Z,19.95
2022-12-05T15:53:00.808Z,23.10
2022-12-05T15:55:35.224Z,21.13
2022-12-05T15:58:13.098Z,22.20
2022-12-05T16:00:47.196Z,23.13
2022-12-05T16:03:21.440Z,30.13
2022-12-05T16:05:54.342Z,23.58
2022-12-05T16:08:25.983Z,21.83
2022-12-05T16:10:54.918Z,22.10
2022-12-05T16:13:26.920Z,25.88
2022-12-05T16:15:56.276Z,20.60
2022-12-05T16:18:28.424Z,20.25
2022-12-05T16:20:57.603Z,21.58
2022-12-05T16:23:30.466Z,19.92
2022-12-05T16:26:22.004Z,19.48
2022-12-05T16:28:59.134Z,21.17
2022-12-05T16:31:28.110Z,20.40
2022-12-05T16:34:04.848Z,19.83
2022-12-05T16:36:34.217Z,19.13
2022-12-05T16:39:07.723Z,19.95
2022-12-05T16:41:40.521Z,20.27
2022-12-05T16:44:58.080Z,20.65
2022-12-05T16:47:47.971Z,21.85
2022-12-05T16:52:52.304Z,20.08
2022-12-05T16:55:22.242Z,22.00
2022-12-05T16:57:50.785Z,22.65
2022-12-05T17:00:19.734Z,21.13
2022-12-05T17:02:48.183Z,21.13
2022-12-05T17:05:17.925Z,21.67
2022-12-05T17:07:46.405Z,23.98
2022-12-05T17:10:15.779Z,22.92
2022-12-05T17:12:47.845Z,22.05
2022-12-05T17:15:18.509Z,22.70
2022-12-05T17:17:47.762Z,22.85
2022-12-05T17:20:15.851Z,23.60
2022-12-05T17:22:44.225Z,24.48
2022-12-05T17:25:22.045Z,24.73
2022-12-05T17:27:51.825Z,23.95
2022-12-05T17:32:48.415Z,22.25
2022-12-05T17:35:18.022Z,22.83
2022-12-05T17:37:46.469Z,23.90
2022-12-05T17:40:15.696Z,24.25
2022-12-05T17:45:16.581Z,23.33
2022-12-05T17:47:46.715Z,23.48
2022-12-05T17:50:18.211Z,24.17
2022-12-05T17:52:46.913Z,23.27
2022-12-05T17:55:19.504Z,23.53
2022-12-05T17:57:49.069Z,21.30
2022-12-05T18:00:21.041Z,20.50
2022-12-05T18:02:50.121Z,22.23
2022-12-05T18:05:19.094Z,20.95
2022-12-05T18:07:48.648Z,21.38
2022-12-05T18:10:19.183Z,20.88
2022-12-05T18:12:48.529Z,19.73
2022-12-05T18:15:18.797Z,20.52
2022-12-05T18:17:47.177Z,21.02
2022-12-05T18:20:16.882Z,21.15
2022-12-05T18:22:45.418Z,21.02
2022-12-05T18:25:17.154Z,21.25
2022-12-05T18:27:45.728Z,22.45
2022-12-05T18:30:14.651Z,23.15
2022-12-05T18:32:44.703Z,23.08
2022-12-05T18:35:13.294Z,21.90
2022-12-05T18:37:41.908Z,23.73
2022-12-05T18:40:15.339Z,23.02
2022-12-05T18:42:43.822Z,24.33
2022-12-05T18:45:12.675Z,22.73
2022-12-05T18:47:46.351Z,25.48
2022-12-05T18:50:15.029Z,24.90
2022-12-05T18:52:43.793Z,26.35
2022-12-05T18:55:17.625Z,25.00
2022-12-05T18:57:47.118Z,27.75
2022-12-05T19:00:17.681Z,29.70
2022-12-05T19:02:50.427Z,31.77
2022-12-05T19:05:20.824Z,30.95
2022-12-05T19:07:49.316Z,29.58
2022-12-05T19:10:17.581Z,28.10
2022-12-05T19:12:46.169Z,27.00
2022-12-05T19:15:14.319Z,26.95
2022-12-05T19:17:42.895Z,28.57
2022-12-05T19:20:15.875Z,28.88
2022-12-05T19:22:44.190Z,26.10
2022-12-05T19:25:12.358Z,25.85
2022-12-05T19:27:40.944Z,25.70
2022-12-05T19:30:10.758Z,25.25
2022-12-05T19:32:40.591Z,28.10
2022-12-05T19:35:15.141Z,28.38
2022-12-05T19:37:44.903Z,25.85
2022-12-05T19:42:41.640Z,25.95
2022-12-05T19:45:16.379Z,27.77
2022-12-05T19:47:46.505Z,26.48
2022-12-05T19:50:14.652Z,29.08
2022-12-05T19:52:44.507Z,23.63
2022-12-05T19:55:13.750Z,28.17
2022-12-05T19:57:43.377Z,28.05
2022-12-05T20:00:12.521Z,26.90
2022-12-05T20:05:11.109Z,24.70
2022-12-05T20:07:39.664Z,24.92
2022-12-05T20:10:10.528Z,28.20
2022-12-05T20:12:39.485Z,29.17
2022-12-05T20:15:10.457Z,27.08
2022-12-05T20:17:38.881Z,28.23
2022-12-05T20:20:10.949Z,29.90
2022-12-05T20:22:39.305Z,28.95
2022-12-05T20:25:09.576Z,28.35
2022-12-05T20:27:38.373Z,26.45
2022-12-05T20:30:08.803Z,27.37
2022-12-05T20:32:37.288Z,29.50
2022-12-05T20:35:08.466Z,27.88
2022-12-05T20:37:36.871Z,29.40
2022-12-05T20:40:06.017Z,29.02
2022-12-05T20:42:36.016Z,27.80
2022-12-05T20:45:04.396Z,26.45
2022-12-05T20:47:32.781Z,25.42
2022-12-05T20:50:01.328Z,25.63
2022-12-05T20:52:31.084Z,23.38
2022-12-05T20:54:59.346Z,23.70
2022-12-05T20:57:28.105Z,26.57
2022-12-05T20:59:58.426Z,25.83
2022-12-05T21:02:27.261Z,25.10
2022-12-05T21:04:56.141Z,25.80
2022-12-05T21:07:24.610Z,25.23
2022-12-05T21:09:52.668Z,25.73
2022-12-05T21:12:21.596Z,25.23
2022-12-05T21:14:49.737Z,25.73
2022-12-05T21:17:19.581Z,26.90
2022-12-05T21:22:16.103Z,25.33
2022-12-05T21:24:44.647Z,27.25
2022-12-05T21:27:13.066Z,28.85
2022-12-05T21:29:41.331Z,27.38
2022-12-05T21:32:10.418Z,27.13
2022-12-05T21:34:42.702Z,28.70
2022-12-05T21:37:11.137Z,27.38
2022-12-05T21:39:39.795Z,28.50
2022-12-05T21:42:08.527Z,28.83
2022-12-05T21:44:36.712Z,28.87
2022-12-05T21:47:05.390Z,29.92
2022-12-05T21:49:33.761Z,27.23
2022-12-05T21:52:03.685Z,28.27
2022-12-05T21:54:31.894Z,27.58
2022-12-05T21:57:00.830Z,29.52
2022-12-05T21:59:32.653Z,26.20
2022-12-05T22:02:02.363Z,28.52
2022-12-05T22:04:31.213Z,24.92
2022-12-05T22:07:00.989Z,26.35
2022-12-05T22:09:30.629Z,27.48
2022-12-05T22:11:59.065Z,27.08
2022-12-05T22:14:27.174Z,26.08
2022-12-05T22:16:55.609Z,26.75
2022-12-05T22:19:23.695Z,26.05
2022-12-05T22:21:52.234Z,27.13
2022-12-05T22:24:20.321Z,27.05
2022-12-05T22:26:52.973Z,27.40
2022-12-05T22:29:21.021Z,26.50
2022-12-05T22:31:49.479Z,26.90
2022-12-05T22:34:17.930Z,25.27
2022-12-05T22:36:46.325Z,26.73
2022-12-05T22:39:14.581Z,27.60
2022-12-05T22:41:42.993Z,26.90
2022-12-05T22:44:12.460Z,30.50
2022-12-05T22:46:40.960Z,28.63
2022-12-05T22:49:09.215Z,27.73
2022-12-05T22:51:37.664Z,28.77
2022-12-05T22:54:06.076Z,27.50
2022-12-05T22:56:34.712Z,28.08
2022-12-05T22:59:09.191Z,28.08
2022-12-05T23:01:41.795Z,27.92
2022-12-05T23:04:12.700Z,27.70
2022-12-05T23:06:41.238Z,26.20
2022-12-05T23:09:11.327Z,27.05
2022-12-05T23:11:40.112Z,24.70
2022-12-05T23:14:08.373Z,27.80
2022-12-05T23:16:36.907Z,26.73
2022-12-05T23:19:08.299Z,26.67
2022-12-05T23:21:38.459Z,25.83
2022-12-05T23:24:09.218Z,27.45
2022-12-05T23:26:41.762Z,26.55
2022-12-05T23:29:12.057Z,28.33
2022-12-05T23:31:41.567Z,28.75
2022-12-05T23:34:11.268Z,26.52
2022-12-05T23:36:40.344Z,25.90
2022-12-05T23:39:08.584Z,28.40
2022-12-05T23:41:37.014Z,28.73
2022-12-05T23:44:05.489Z,29.17
2022-12-05T23:46:34.027Z,28.30
2022-12-05T23:49:02.188Z,28.30
2022-12-05T23:51:32.312Z,27.25
2022-12-05T23:54:02.861Z,28.90
2022-12-05T23:56:33.354Z,29.10
2022-12-05T23:59:02.727Z,27.70
